Sheelite, Nevada
Current Conditions -  °F | °C
As of 4:56 PM on Saturday 27 Dec 2014 (Local Time) from KNFL Reporting Station
Broken Clouds Broken Clouds  
Wind Chill: 24°   Ceiling: 25000
Heat Index: 31°   Visibility: 10mi
Dew Point: 14°   Wind: 7mph
Humidity: 50%   Direction: 60°ENE
Pressure: 30.28"   Gusts: NA
Location:  38.96°N, 118.679°W
Report Text: KNFL 280056Z 06006KT 10SM FEW150 SCT200 BKN250 M01/M10 A3028 RMK AO2 SLP214 T10061100
Loading
Personal Weather Stations






























Interactive Weather Map New forecast layout! Learn more

10-Day Weather Forecast

Advertisements
Track Severe Weather on mobile